createdAt,value
2023-05-07T00:01:03.569Z,79.80
2023-05-07T00:03:30.835Z,80.30
2023-05-07T00:05:59.505Z,82.00
2023-05-07T00:08:26.739Z,80.70
2023-05-07T00:10:54.196Z,80.80
2023-05-07T00:13:24.149Z,81.20
2023-05-07T00:15:52.613Z,82.70
2023-05-07T00:18:22.220Z,81.90
2023-05-07T00:20:50.551Z,83.20
2023-05-07T00:23:17.755Z,86.30
2023-05-07T00:25:44.868Z,84.90
2023-05-07T00:28:12.701Z,83.40
2023-05-07T00:30:39.854Z,82.70
2023-05-07T00:33:07.211Z,83.00
2023-05-07T00:35:34.366Z,83.80
2023-05-07T00:38:02.932Z,83.30
2023-05-07T00:40:29.983Z,84.10
2023-05-07T00:42:59.440Z,83.30
2023-05-07T00:45:29.806Z,85.70
2023-05-07T00:47:59.268Z,85.70
2023-05-07T00:50:27.777Z,86.00
2023-05-07T00:52:55.853Z,85.60
2023-05-07T00:55:24.776Z,87.00
2023-05-07T00:57:52.395Z,87.70
2023-05-07T01:00:20.449Z,88.30
2023-05-07T01:02:47.809Z,88.30
2023-05-07T01:05:18.221Z,87.10
2023-05-07T01:07:46.639Z,86.60
2023-05-07T01:10:14.552Z,86.90
2023-05-07T01:12:43.615Z,87.60
2023-05-07T01:15:11.510Z,87.30
2023-05-07T01:17:41.280Z,87.30
2023-05-07T01:20:09.847Z,87.30
2023-05-07T01:22:39.880Z,87.30
2023-05-07T01:25:10.832Z,87.20
2023-05-07T01:27:38.328Z,87.10
2023-05-07T01:30:06.457Z,86.90
2023-05-07T01:32:57.914Z,87.10
2023-05-07T01:35:30.184Z,87.00
2023-05-07T01:37:57.859Z,86.80
2023-05-07T01:40:26.928Z,87.40
2023-05-07T01:42:55.774Z,87.20
2023-05-07T01:45:23.058Z,86.80
2023-05-07T01:47:53.295Z,86.80
2023-05-07T01:50:21.404Z,87.40
2023-05-07T01:52:51.316Z,86.80
2023-05-07T01:55:19.584Z,86.80
2023-05-07T01:57:47.768Z,86.50
2023-05-07T02:00:15.113Z,86.20
2023-05-07T02:02:42.980Z,86.10
2023-05-07T02:05:10.562Z,85.80
2023-05-07T02:07:37.744Z,85.70
2023-05-07T02:10:06.178Z,85.80
2023-05-07T02:12:35.078Z,85.60
2023-05-07T02:15:02.432Z,85.30
2023-05-07T02:17:32.865Z,85.40
2023-05-07T02:20:00.893Z,85.50
2023-05-07T02:22:28.026Z,85.40
2023-05-07T02:24:55.180Z,85.30
2023-05-07T02:27:23.380Z,85.10
2023-05-07T02:29:50.534Z,85.00
2023-05-07T02:32:17.726Z,85.00
2023-05-07T02:34:45.505Z,84.90
2023-05-07T02:37:12.681Z,84.90
2023-05-07T02:39:39.784Z,84.90
2023-05-07T02:42:06.882Z,84.60
2023-05-07T02:44:34.016Z,84.80
2023-05-07T02:47:02.638Z,85.10
2023-05-07T02:49:31.816Z,84.90
2023-05-07T02:51:58.895Z,84.90
2023-05-07T02:54:26.232Z,84.80
2023-05-07T02:56:53.430Z,84.90
2023-05-07T02:59:20.602Z,85.00
2023-05-07T03:01:47.935Z,84.90
2023-05-07T03:04:15.174Z,84.90
2023-05-07T03:06:42.490Z,85.10
2023-05-07T03:09:09.683Z,87.40
2023-05-07T03:11:39.401Z,86.70
2023-05-07T03:14:06.505Z,86.30
2023-05-07T03:16:33.980Z,85.60
2023-05-07T03:19:01.237Z,85.60
2023-05-07T03:21:28.534Z,86.50
2023-05-07T03:23:55.796Z,86.10
2023-05-07T03:26:23.193Z,86.70
2023-05-07T03:28:50.584Z,86.10
2023-05-07T03:31:18.055Z,86.30
2023-05-07T03:33:56.601Z,86.10
2023-05-07T03:36:24.515Z,86.30
2023-05-07T03:38:51.656Z,86.40
2023-05-07T03:41:18.963Z,86.80
2023-05-07T03:43:47.415Z,86.30
2023-05-07T03:46:14.947Z,86.10
2023-05-07T03:48:42.128Z,85.80
2023-05-07T03:51:09.246Z,85.80
2023-05-07T03:53:36.440Z,87.50
2023-05-07T03:56:04.988Z,87.50
2023-05-07T03:58:33.261Z,86.60
2023-05-07T04:01:02.754Z,86.70
2023-05-07T04:03:30.796Z,86.60
2023-05-07T04:05:59.313Z,87.60
2023-05-07T04:08:29.554Z,87.30
2023-05-07T04:11:01.303Z,86.80
2023-05-07T04:13:29.104Z,87.90
2023-05-07T04:16:01.423Z,87.00
2023-05-07T04:18:29.297Z,86.80
2023-05-07T04:20:56.479Z,86.70
2023-05-07T04:23:23.809Z,86.60
2023-05-07T04:25:52.526Z,86.60
2023-05-07T04:28:19.637Z,87.10
2023-05-07T04:30:49.990Z,86.80
2023-05-07T04:33:18.427Z,86.60
2023-05-07T04:35:45.557Z,86.70
2023-05-07T04:38:12.795Z,86.70
2023-05-07T04:40:40.215Z,86.50
2023-05-07T04:43:09.106Z,87.80
2023-05-07T04:45:37.503Z,87.20
2023-05-07T04:48:05.050Z,87.00
2023-05-07T04:50:32.418Z,87.00
2023-05-07T04:52:59.637Z,86.60
2023-05-07T04:55:26.795Z,86.60
2023-05-07T04:57:55.624Z,87.00
2023-05-07T05:00:23.999Z,87.20
2023-05-07T05:02:51.268Z,87.40
2023-05-07T05:05:18.579Z,87.30
2023-05-07T05:07:46.813Z,87.30
2023-05-07T05:10:14.352Z,87.00
2023-05-07T05:12:41.509Z,86.90
2023-05-07T05:15:09.997Z,87.00
2023-05-07T05:17:38.707Z,86.90
2023-05-07T05:20:06.947Z,87.00
2023-05-07T05:22:41.364Z,86.50
2023-05-07T05:25:08.964Z,86.30
2023-05-07T05:27:36.763Z,86.60
2023-05-07T05:30:05.184Z,85.60
2023-05-07T05:32:32.356Z,86.00
2023-05-07T05:34:59.589Z,85.40
2023-05-07T05:37:26.807Z,85.30
2023-05-07T05:39:55.731Z,84.60
2023-05-07T05:42:22.829Z,84.00
2023-05-07T05:44:50.278Z,84.30
2023-05-07T05:47:26.829Z,84.60
2023-05-07T05:49:54.033Z,83.80
2023-05-07T05:52:21.242Z,84.00
2023-05-07T05:54:52.855Z,84.10
2023-05-07T05:57:20.373Z,83.80
2023-05-07T05:59:48.514Z,83.90
2023-05-07T06:02:31.226Z,84.40
2023-05-07T06:04:58.615Z,84.00
2023-05-07T06:07:28.677Z,84.20
2023-05-07T06:09:56.466Z,83.80
2023-05-07T06:12:27.568Z,83.50
2023-05-07T06:15:03.851Z,82.80
2023-05-07T06:17:52.042Z,82.90
2023-05-07T06:20:19.737Z,83.60
2023-05-07T06:22:51.764Z,83.40
2023-05-07T06:25:25.977Z,82.90
2023-05-07T06:28:08.029Z,82.90
2023-05-07T06:30:41.407Z,83.20
2023-05-07T06:33:12.619Z,83.10
2023-05-07T06:35:41.287Z,83.50
2023-05-07T06:41:42.124Z,82.60
2023-05-07T06:44:13.886Z,82.30
2023-05-07T06:46:55.534Z,81.20
2023-05-07T06:49:23.046Z,80.60
2023-05-07T06:51:50.435Z,80.40
2023-05-07T06:54:17.697Z,81.30
2023-05-07T06:56:44.775Z,80.00
2023-05-07T06:59:11.948Z,80.00
2023-05-07T07:01:50.931Z,80.10
2023-05-07T07:04:29.604Z,81.00
2023-05-07T07:07:11.564Z,80.50
2023-05-07T07:09:38.856Z,80.10
2023-05-07T07:12:06.367Z,80.10
2023-05-07T07:14:33.525Z,79.60
2023-05-07T07:17:03.573Z,80.20
2023-05-07T07:19:37.493Z,79.80
2023-05-07T07:22:14.704Z,79.40
2023-05-07T07:24:42.662Z,79.10
2023-05-07T07:27:18.347Z,79.70
2023-05-07T07:29:45.665Z,79.90
2023-05-07T07:32:25.567Z,78.80
2023-05-07T07:37:48.182Z,78.30
2023-05-07T07:40:25.989Z,77.50
2023-05-07T07:43:01.216Z,78.10
2023-05-07T07:45:29.581Z,77.10
2023-05-07T07:48:09.569Z,77.70
2023-05-07T07:50:46.724Z,77.20
2023-05-07T07:53:23.016Z,77.70
2023-05-07T08:01:43.434Z,76.70
2023-05-07T08:04:10.703Z,76.10
2023-05-07T08:06:37.846Z,75.60
2023-05-07T08:09:06.383Z,75.70
2023-05-07T08:11:33.645Z,76.20
2023-05-07T08:14:01.284Z,75.00
2023-05-07T08:16:31.812Z,75.20
2023-05-07T08:18:58.960Z,75.20
2023-05-07T08:21:29.706Z,74.70
2023-05-07T08:24:12.146Z,74.00
2023-05-07T08:26:47.744Z,74.10
2023-05-07T08:29:15.235Z,74.00
2023-05-07T08:31:42.433Z,73.70
2023-05-07T08:34:10.211Z,73.20
2023-05-07T08:36:37.726Z,73.50
2023-05-07T08:39:04.885Z,72.70
2023-05-07T08:41:55.074Z,72.70
2023-05-07T08:44:24.033Z,71.60
2023-05-07T08:46:55.205Z,72.40
2023-05-07T08:49:22.748Z,71.20
2023-05-07T08:51:50.423Z,69.50
2023-05-07T08:54:27.288Z,69.60
2023-05-07T08:56:54.780Z,69.00
2023-05-07T08:59:22.222Z,68.90
2023-05-07T09:01:49.483Z,69.20
2023-05-07T09:04:16.936Z,69.20
2023-05-07T09:06:44.254Z,69.00
2023-05-07T09:09:22.685Z,69.20
2023-05-07T09:12:16.099Z,68.90
2023-05-07T09:14:44.639Z,68.10
2023-05-07T09:17:13.056Z,67.10
2023-05-07T09:19:40.382Z,68.00
2023-05-07T09:22:10.627Z,65.30
2023-05-07T09:27:31.717Z,65.60
2023-05-07T09:29:58.920Z,65.10
2023-05-07T09:32:26.409Z,65.10
2023-05-07T09:34:53.871Z,64.70
2023-05-07T09:37:21.178Z,63.50
2023-05-07T09:40:09.911Z,64.50
2023-05-07T09:42:44.751Z,61.50
2023-05-07T09:45:12.150Z,61.80
2023-05-07T09:47:42.835Z,61.50
2023-05-07T09:50:11.837Z,61.50
2023-05-07T09:52:41.691Z,59.60
2023-05-07T09:55:09.698Z,60.10
2023-05-07T09:57:37.470Z,59.70
2023-05-07T10:00:11.006Z,59.40
2023-05-07T10:02:47.400Z,59.10
2023-05-07T10:05:15.704Z,58.60
2023-05-07T10:07:43.493Z,58.80
2023-05-07T10:10:11.628Z,57.70
2023-05-07T10:12:42.548Z,56.80
2023-05-07T10:15:11.754Z,56.00
2023-05-07T10:17:40.688Z,56.80
2023-05-07T10:20:09.398Z,56.60
2023-05-07T10:22:44.037Z,56.70
2023-05-07T10:25:21.943Z,57.40
2023-05-07T10:27:52.090Z,56.90
2023-05-07T10:30:47.104Z,57.00
2023-05-07T10:33:18.094Z,57.40
2023-05-07T10:35:48.144Z,57.20
2023-05-07T10:38:15.648Z,56.50
2023-05-07T10:40:42.917Z,57.00
2023-05-07T10:43:11.461Z,57.10
2023-05-07T10:45:38.655Z,56.40
2023-05-07T10:48:21.451Z,57.00
2023-05-07T10:51:24.509Z,56.70
2023-05-07T10:54:29.856Z,55.90
2023-05-07T10:56:57.019Z,56.40
2023-05-07T10:59:35.857Z,55.90
2023-05-07T11:02:08.812Z,55.40
2023-05-07T11:04:36.670Z,55.80
2023-05-07T11:07:10.992Z,55.40
2023-05-07T11:09:57.466Z,54.70
2023-05-07T11:13:00.618Z,54.10
2023-05-07T11:15:43.136Z,54.30
2023-05-07T11:18:12.164Z,53.10
2023-05-07T11:20:52.154Z,52.60
2023-05-07T11:23:38.582Z,52.40
2023-05-07T11:26:08.865Z,52.40
2023-05-07T11:28:41.234Z,52.60
2023-05-07T11:31:09.311Z,51.90
2023-05-07T11:33:40.446Z,51.50
2023-05-07T11:36:09.502Z,51.90
2023-05-07T11:38:38.055Z,52.20
2023-05-07T11:41:09.048Z,52.20
2023-05-07T11:43:37.076Z,51.80
2023-05-07T11:46:12.839Z,50.50
2023-05-07T11:48:40.310Z,50.00
2023-05-07T11:51:10.131Z,50.50
2023-05-07T11:53:42.775Z,51.40
2023-05-07T11:56:15.044Z,50.50
2023-05-07T11:58:43.119Z,50.60
2023-05-07T12:01:12.517Z,50.50
2023-05-07T12:03:44.344Z,50.90
2023-05-07T12:06:12.883Z,50.80
2023-05-07T12:08:44.821Z,51.00
2023-05-07T12:11:19.562Z,50.80
2023-05-07T12:13:46.901Z,50.90
2023-05-07T12:16:14.968Z,51.10
2023-05-07T12:18:42.805Z,50.50
2023-05-07T12:21:10.896Z,49.80
2023-05-07T12:23:39.277Z,49.30
2023-05-07T12:26:07.794Z,49.90
2023-05-07T12:28:42.215Z,50.00
2023-05-07T12:31:09.609Z,49.20
2023-05-07T12:33:37.083Z,49.70
2023-05-07T12:36:07.533Z,49.40
2023-05-07T12:38:39.053Z,49.80
2023-05-07T12:41:08.307Z,50.00
2023-05-07T12:43:35.643Z,50.40
2023-05-07T12:46:06.944Z,49.90
2023-05-07T12:48:34.816Z,50.40
2023-05-07T12:51:03.366Z,49.50
2023-05-07T12:53:33.197Z,48.90
2023-05-07T12:56:01.170Z,48.70
2023-05-07T12:58:35.016Z,49.20
2023-05-07T13:01:06.199Z,49.50
2023-05-07T13:03:36.393Z,49.50
2023-05-07T13:06:05.994Z,49.10
2023-05-07T13:08:45.481Z,48.90
2023-05-07T13:11:14.172Z,48.90
2023-05-07T13:13:42.214Z,49.00
2023-05-07T13:16:12.204Z,49.00
2023-05-07T13:18:41.428Z,49.30
2023-05-07T13:21:08.979Z,49.70
2023-05-07T13:23:36.130Z,49.70
2023-05-07T13:26:08.517Z,49.80
2023-05-07T13:28:43.397Z,49.90
2023-05-07T13:31:10.828Z,49.80
2023-05-07T13:33:37.977Z,49.90
2023-05-07T13:36:06.683Z,49.70
2023-05-07T13:38:35.864Z,50.20
2023-05-07T13:41:02.997Z,49.80
2023-05-07T13:43:30.229Z,50.90
2023-05-07T13:45:57.361Z,50.00
2023-05-07T13:48:24.621Z,50.00
2023-05-07T13:50:54.928Z,50.00
2023-05-07T13:53:24.715Z,49.80
2023-05-07T13:55:51.865Z,49.70
2023-05-07T13:58:19.197Z,50.20
2023-05-07T14:00:46.594Z,49.60
2023-05-07T14:03:13.896Z,49.00
2023-05-07T14:05:41.721Z,49.10
2023-05-07T14:08:08.985Z,49.10
2023-05-07T14:10:37.147Z,49.60
2023-05-07T14:13:04.286Z,48.60
2023-05-07T14:15:33.737Z,48.80
2023-05-07T14:18:01.638Z,48.50
2023-05-07T14:20:28.885Z,48.40
2023-05-07T14:22:57.086Z,48.20
2023-05-07T14:25:25.399Z,48.30
2023-05-07T14:27:53.024Z,48.40
2023-05-07T14:30:20.690Z,47.90
2023-05-07T14:32:47.883Z,48.00
2023-05-07T14:35:15.357Z,47.80
2023-05-07T14:37:42.672Z,48.50
2023-05-07T14:40:11.042Z,48.20
2023-05-07T14:42:38.509Z,48.40
2023-05-07T14:45:06.147Z,48.50
2023-05-07T14:47:33.312Z,48.60
2023-05-07T14:50:02.187Z,48.50
2023-05-07T14:52:32.361Z,48.50
2023-05-07T14:55:01.340Z,47.80
2023-05-07T14:57:32.959Z,48.50
2023-05-07T15:00:00.350Z,48.20
2023-05-07T15:02:27.689Z,48.20
2023-05-07T15:04:54.889Z,48.60
2023-05-07T15:07:22.113Z,48.70
2023-05-07T15:09:49.265Z,48.50
2023-05-07T15:12:16.893Z,48.60
2023-05-07T15:14:44.071Z,48.90
2023-05-07T15:17:11.610Z,48.40
2023-05-07T15:19:45.002Z,48.80
2023-05-07T15:22:12.356Z,48.70
2023-05-07T15:24:39.654Z,48.70
2023-05-07T15:27:06.873Z,49.20
2023-05-07T15:29:35.751Z,49.30
2023-05-07T15:32:03.122Z,49.00
2023-05-07T15:34:32.253Z,48.70
2023-05-07T15:36:59.417Z,48.90
2023-05-07T15:39:26.945Z,49.10
2023-05-07T15:41:57.059Z,49.00
2023-05-07T15:44:29.738Z,49.10
2023-05-07T15:46:57.111Z,48.90
2023-05-07T15:49:30.184Z,48.80
2023-05-07T15:51:59.232Z,47.90
2023-05-07T15:54:26.514Z,47.80
2023-05-07T15:56:56.755Z,46.80
2023-05-07T15:59:24.626Z,46.90
2023-05-07T16:01:59.271Z,46.30
2023-05-07T16:04:28.146Z,45.50
2023-05-07T16:06:55.800Z,45.60
2023-05-07T16:09:26.132Z,44.90
2023-05-07T16:11:55.516Z,44.80
2023-05-07T16:14:25.963Z,45.20
2023-05-07T16:16:57.705Z,46.10
2023-05-07T16:19:24.831Z,46.20
2023-05-07T16:21:57.549Z,46.00
2023-05-07T16:24:27.866Z,45.90
2023-05-07T16:26:54.937Z,46.00
2023-05-07T16:29:24.828Z,46.40
2023-05-07T16:31:57.487Z,46.90
2023-05-07T16:34:27.093Z,47.00
2023-05-07T16:36:54.311Z,46.20
2023-05-07T16:39:21.402Z,45.70
2023-05-07T16:41:51.418Z,46.20
2023-05-07T16:44:21.236Z,46.10
2023-05-07T16:46:48.490Z,46.20
2023-05-07T16:49:15.815Z,46.80
2023-05-07T16:51:45.286Z,47.60
2023-05-07T16:54:12.459Z,48.20
2023-05-07T16:56:39.853Z,48.60
2023-05-07T16:59:07.462Z,48.50
2023-05-07T17:02:13.170Z,48.70
2023-05-07T17:05:47.183Z,48.70
2023-05-07T17:08:40.453Z,49.40
2023-05-07T17:11:08.972Z,50.00
2023-05-07T17:13:36.398Z,50.00
2023-05-07T17:16:06.880Z,50.30
2023-05-07T17:18:34.454Z,50.30
2023-05-07T17:21:01.576Z,50.30
2023-05-07T17:23:36.908Z,50.70
2023-05-07T17:26:04.065Z,50.70
2023-05-07T17:29:03.345Z,51.20
2023-05-07T17:31:37.046Z,51.00
2023-05-07T17:34:04.250Z,51.30
2023-05-07T17:36:38.881Z,51.20
2023-05-07T17:39:06.137Z,51.60
2023-05-07T17:41:37.408Z,51.80
2023-05-07T17:44:05.921Z,52.00
2023-05-07T17:46:33.425Z,52.50
2023-05-07T17:49:00.907Z,52.80
2023-05-07T17:51:33.821Z,53.60
2023-05-07T17:54:06.324Z,53.40
2023-05-07T17:56:33.465Z,53.30
2023-05-07T17:59:00.755Z,53.40
2023-05-07T18:01:35.900Z,53.50
2023-05-07T18:04:03.667Z,53.40
2023-05-07T18:06:30.777Z,54.00
2023-05-07T18:08:58.066Z,54.40
2023-05-07T18:11:25.556Z,54.40
2023-05-07T18:13:52.837Z,55.00
2023-05-07T18:16:20.147Z,55.40
2023-05-07T18:18:47.523Z,55.50
2023-05-07T18:21:20.439Z,55.80
2023-05-07T18:23:50.986Z,55.70
2023-05-07T18:26:18.303Z,56.20
2023-05-07T18:28:46.200Z,56.40
2023-05-07T18:31:16.887Z,56.70
2023-05-07T18:33:44.140Z,56.90
2023-05-07T18:36:11.266Z,57.40
2023-05-07T18:38:39.001Z,57.60
2023-05-07T18:41:08.624Z,58.00
2023-05-07T18:43:35.822Z,58.20
2023-05-07T18:46:03.219Z,58.10
2023-05-07T18:48:30.444Z,58.40
2023-05-07T18:50:57.575Z,58.80
2023-05-07T18:53:24.826Z,59.00
2023-05-07T18:55:52.794Z,58.90
2023-05-07T18:58:20.680Z,58.80
2023-05-07T19:00:54.248Z,59.60
2023-05-07T19:03:21.440Z,59.10
2023-05-07T19:05:49.872Z,59.20
2023-05-07T19:08:16.993Z,59.60
2023-05-07T19:10:45.118Z,59.20
2023-05-07T19:13:12.380Z,59.40
2023-05-07T19:15:40.278Z,59.30
2023-05-07T19:18:07.638Z,59.00
2023-05-07T19:20:34.873Z,59.60
2023-05-07T19:23:02.124Z,60.10
2023-05-07T19:25:31.731Z,59.60
2023-05-07T19:27:58.892Z,60.30
2023-05-07T19:30:26.169Z,60.10
2023-05-07T19:32:56.466Z,60.80
2023-05-07T19:35:23.939Z,60.30
2023-05-07T19:37:51.160Z,60.70
2023-05-07T19:40:18.389Z,60.60
2023-05-07T19:42:46.109Z,60.90
2023-05-07T19:45:15.748Z,60.70
2023-05-07T19:47:43.017Z,60.40
2023-05-07T19:50:10.699Z,60.40
2023-05-07T19:52:37.994Z,61.40
2023-05-07T19:55:06.105Z,62.00
2023-05-07T19:57:35.569Z,61.90
2023-05-07T20:00:02.877Z,62.50
2023-05-07T20:02:30.041Z,61.90
2023-05-07T20:04:57.234Z,61.90
2023-05-07T20:07:24.544Z,62.70
2023-05-07T20:09:52.888Z,62.60
2023-05-07T20:12:21.393Z,62.90
2023-05-07T20:14:48.563Z,62.50
2023-05-07T20:17:16.267Z,62.40
2023-05-07T20:19:49.565Z,62.80
2023-05-07T20:22:16.854Z,62.40
2023-05-07T20:24:43.939Z,62.40
2023-05-07T20:27:11.767Z,62.90
2023-05-07T20:29:38.890Z,63.60
2023-05-07T20:32:07.754Z,63.50
2023-05-07T20:34:35.710Z,63.40
2023-05-07T20:37:03.396Z,63.40
2023-05-07T20:39:30.455Z,63.60
2023-05-07T20:41:59.808Z,63.40
2023-05-07T20:44:26.910Z,64.20
2023-05-07T20:46:54.036Z,64.70
2023-05-07T20:49:23.095Z,64.70
2023-05-07T20:51:50.200Z,64.50
2023-05-07T20:54:18.130Z,64.60
2023-05-07T20:56:46.557Z,64.10
2023-05-07T20:59:14.139Z,64.10
2023-05-07T21:01:42.752Z,64.60
2023-05-07T21:04:11.113Z,65.40
2023-05-07T21:06:38.312Z,65.60
2023-05-07T21:09:05.486Z,65.80
2023-05-07T21:11:32.782Z,65.70
2023-05-07T21:13:59.929Z,65.60
2023-05-07T21:16:27.225Z,65.20
2023-05-07T21:18:54.404Z,65.40
2023-05-07T21:21:23.243Z,65.00
2023-05-07T21:23:50.386Z,64.90
2023-05-07T21:26:18.922Z,64.90
2023-05-07T21:28:46.423Z,65.20
2023-05-07T21:31:13.760Z,65.30
2023-05-07T21:33:41.015Z,65.30
2023-05-07T21:36:08.588Z,66.20
2023-05-07T21:38:38.403Z,66.50
2023-05-07T21:41:06.416Z,66.40
2023-05-07T21:43:33.541Z,66.30
2023-05-07T21:46:00.781Z,66.30
2023-05-07T21:48:27.934Z,66.70
2023-05-07T21:51:07.147Z,67.00
2023-05-07T21:53:36.181Z,67.00
2023-05-07T21:56:04.974Z,67.00
2023-05-07T21:58:34.750Z,67.10
2023-05-07T22:01:02.023Z,66.50
2023-05-07T22:03:29.421Z,66.40
2023-05-07T22:05:56.855Z,66.10
2023-05-07T22:08:24.414Z,66.10
2023-05-07T22:10:51.705Z,65.90
2023-05-07T22:13:18.859Z,66.20
2023-05-07T22:15:56.609Z,66.00
2023-05-07T22:18:26.477Z,66.30
2023-05-07T22:20:53.680Z,67.30
2023-05-07T22:23:20.930Z,66.60
2023-05-07T22:25:48.275Z,67.30
2023-05-07T22:28:15.997Z,67.90
2023-05-07T22:30:43.294Z,67.50
2023-05-07T22:33:10.409Z,67.40
2023-05-07T22:35:37.588Z,67.50
2023-05-07T22:38:04.706Z,68.90
2023-05-07T22:40:31.917Z,69.00
2023-05-07T22:43:01.832Z,69.30
2023-05-07T22:45:28.982Z,68.90
2023-05-07T22:47:56.250Z,68.60
2023-05-07T22:50:23.722Z,68.70
2023-05-07T22:52:50.999Z,68.90
2023-05-07T22:55:18.241Z,69.20
2023-05-07T22:57:45.697Z,68.60
2023-05-07T23:00:13.872Z,68.90
2023-05-07T23:02:41.249Z,68.80
2023-05-07T23:05:08.593Z,68.60
2023-05-07T23:07:38.887Z,68.80
2023-05-07T23:10:07.641Z,69.20
2023-05-07T23:12:34.779Z,69.00
2023-05-07T23:15:02.097Z,69.10
2023-05-07T23:17:29.834Z,69.20
2023-05-07T23:19:57.644Z,69.20
2023-05-07T23:22:24.843Z,69.70
2023-05-07T23:24:51.900Z,70.00
2023-05-07T23:27:19.026Z,69.60
2023-05-07T23:29:46.734Z,70.20
2023-05-07T23:32:13.940Z,70.10
2023-05-07T23:34:41.120Z,70.60
2023-05-07T23:37:11.429Z,70.90
2023-05-07T23:39:38.560Z,71.50
2023-05-07T23:42:05.774Z,70.60
2023-05-07T23:44:32.867Z,71.10
2023-05-07T23:46:59.925Z,71.20
2023-05-07T23:49:27.124Z,70.90
2023-05-07T23:51:54.509Z,70.90
2023-05-07T23:54:21.654Z,71.20
2023-05-07T23:56:49.337Z,71.30
2023-05-07T23:59:16.405Z,72.00
